sensor_id;sensor_type;location;lat;lon;timestamp;temperature;humidity
26691;DHT22;14307;51.718;8.938;2024-03-06T00:00:24;6.60;99.90
26691;DHT22;14307;51.718;8.938;2024-03-06T00:02:51;6.60;99.90
26691;DHT22;14307;51.718;8.938;2024-03-06T00:05:18;6.60;99.90
26691;DHT22;14307;51.718;8.938;2024-03-06T00:07:45;6.40;99.90
26691;DHT22;14307;51.718;8.938;2024-03-06T00:10:12;6.50;99.90
26691;DHT22;14307;51.718;8.938;2024-03-06T00:12:39;6.50;99.90
26691;DHT22;14307;51.718;8.938;2024-03-06T00:15:07;6.50;99.90
26691;DHT22;14307;51.718;8.938;2024-03-06T00:17:34;6.60;99.90
26691;DHT22;14307;51.718;8.938;2024-03-06T00:20:02;6.60;99.90
26691;DHT22;14307;51.718;8.938;2024-03-06T00:22:32;6.50;99.90
26691;DHT22;14307;51.718;8.938;2024-03-06T00:24:59;6.40;99.90
26691;DHT22;14307;51.718;8.938;2024-03-06T00:27:26;6.30;99.90
26691;DHT22;14307;51.718;8.938;2024-03-06T00:29:53;6.30;99.90
26691;DHT22;14307;51.718;8.938;2024-03-06T00:32:20;6.40;99.90
26691;DHT22;14307;51.718;8.938;2024-03-06T00:34:50;6.30;99.90
26691;DHT22;14307;51.718;8.938;2024-03-06T00:37:17;6.30;99.90
26691;DHT22;14307;51.718;8.938;2024-03-06T00:39:44;6.30;99.90
26691;DHT22;14307;51.718;8.938;2024-03-06T00:42:11;6.30;99.90
26691;DHT22;14307;51.718;8.938;2024-03-06T00:44:41;6.30;99.90
26691;DHT22;14307;51.718;8.938;2024-03-06T00:47:08;6.20;99.90
26691;DHT22;14307;51.718;8.938;2024-03-06T00:49:35;6.20;99.90
26691;DHT22;14307;51.718;8.938;2024-03-06T00:52:02;6.20;99.90
26691;DHT22;14307;51.718;8.938;2024-03-06T00:54:31;6.20;99.90
26691;DHT22;14307;51.718;8.938;2024-03-06T00:56:58;6.20;99.90
26691;DHT22;14307;51.718;8.938;2024-03-06T00:59:26;6.10;99.90
26691;DHT22;14307;51.718;8.938;2024-03-06T01:01:53;6.10;99.90
26691;DHT22;14307;51.718;8.938;2024-03-06T01:04:23;6.10;99.90
26691;DHT22;14307;51.718;8.938;2024-03-06T01:06:50;6.10;99.90
26691;DHT22;14307;51.718;8.938;2024-03-06T01:09:19;6.20;99.90
26691;DHT22;14307;51.718;8.938;2024-03-06T01:11:46;6.20;99.90
26691;DHT22;14307;51.718;8.938;2024-03-06T01:14:14;6.20;99.90
26691;DHT22;14307;51.718;8.938;2024-03-06T01:16:41;6.10;99.90
26691;DHT22;14307;51.718;8.938;2024-03-06T01:19:08;6.10;99.90
26691;DHT22;14307;51.718;8.938;2024-03-06T01:21:36;6.20;99.90
26691;DHT22;14307;51.718;8.938;2024-03-06T01:24:03;6.20;99.90
26691;DHT22;14307;51.718;8.938;2024-03-06T01:26:30;6.20;99.90
26691;DHT22;14307;51.718;8.938;2024-03-06T01:28:57;6.20;99.90
26691;DHT22;14307;51.718;8.938;2024-03-06T01:31:24;6.10;99.90
26691;DHT22;14307;51.718;8.938;2024-03-06T01:33:51;6.20;99.90
26691;DHT22;14307;51.718;8.938;2024-03-06T01:36:18;6.20;99.90
26691;DHT22;14307;51.718;8.938;2024-03-06T01:38:45;6.10;99.90
26691;DHT22;14307;51.718;8.938;2024-03-06T01:41:14;6.10;99.90
26691;DHT22;14307;51.718;8.938;2024-03-06T01:43:42;6.00;99.90
26691;DHT22;14307;51.718;8.938;2024-03-06T01:46:09;5.90;99.90
26691;DHT22;14307;51.718;8.938;2024-03-06T01:48:36;6.00;99.90
26691;DHT22;14307;51.718;8.938;2024-03-06T01:51:05;6.00;99.90
26691;DHT22;14307;51.718;8.938;2024-03-06T01:53:34;6.10;99.90
26691;DHT22;14307;51.718;8.938;2024-03-06T01:56:02;6.10;99.90
26691;DHT22;14307;51.718;8.938;2024-03-06T01:58:31;6.20;99.90
26691;DHT22;14307;51.718;8.938;2024-03-06T02:01:00;6.20;99.90
26691;DHT22;14307;51.718;8.938;2024-03-06T02:03:31;6.30;99.90
26691;DHT22;14307;51.718;8.938;2024-03-06T02:06:00;6.20;99.90
26691;DHT22;14307;51.718;8.938;2024-03-06T02:08:29;6.30;99.90
26691;DHT22;14307;51.718;8.938;2024-03-06T02:10:56;6.30;99.90
26691;DHT22;14307;51.718;8.938;2024-03-06T02:13:23;6.20;99.90
26691;DHT22;14307;51.718;8.938;2024-03-06T02:15:50;6.10;99.90
26691;DHT22;14307;51.718;8.938;2024-03-06T02:18:17;6.20;99.90
26691;DHT22;14307;51.718;8.938;2024-03-06T02:20:44;6.20;99.90
26691;DHT22;14307;51.718;8.938;2024-03-06T02:23:13;6.30;99.90
26691;DHT22;14307;51.718;8.938;2024-03-06T02:25:41;6.40;99.90
26691;DHT22;14307;51.718;8.938;2024-03-06T02:28:09;6.40;99.90
26691;DHT22;14307;51.718;8.938;2024-03-06T02:30:36;6.40;99.90
26691;DHT22;14307;51.718;8.938;2024-03-06T02:33:04;6.40;99.90
26691;DHT22;14307;51.718;8.938;2024-03-06T02:35:34;6.30;99.90
26691;DHT22;14307;51.718;8.938;2024-03-06T02:38:04;6.30;99.90
26691;DHT22;14307;51.718;8.938;2024-03-06T02:40:32;6.30;99.90
26691;DHT22;14307;51.718;8.938;2024-03-06T02:42:59;6.30;99.90
26691;DHT22;14307;51.718;8.938;2024-03-06T02:45:26;6.30;99.90
26691;DHT22;14307;51.718;8.938;2024-03-06T02:47:54;6.20;99.90
26691;DHT22;14307;51.718;8.938;2024-03-06T02:50:21;6.20;99.90
26691;DHT22;14307;51.718;8.938;2024-03-06T02:52:50;6.30;99.90
26691;DHT22;14307;51.718;8.938;2024-03-06T02:55:19;6.30;99.90
26691;DHT22;14307;51.718;8.938;2024-03-06T02:57:46;6.30;99.90
26691;DHT22;14307;51.718;8.938;2024-03-06T03:00:14;6.30;99.90
26691;DHT22;14307;51.718;8.938;2024-03-06T03:02:42;6.30;99.90
26691;DHT22;14307;51.718;8.938;2024-03-06T03:05:10;6.30;99.90
26691;DHT22;14307;51.718;8.938;2024-03-06T03:07:37;6.20;99.90
26691;DHT22;14307;51.718;8.938;2024-03-06T03:10:05;6.20;99.90
26691;DHT22;14307;51.718;8.938;2024-03-06T03:12:32;6.30;99.90
26691;DHT22;14307;51.718;8.938;2024-03-06T03:15:00;6.30;99.90
26691;DHT22;14307;51.718;8.938;2024-03-06T03:17:28;6.30;99.90
26691;DHT22;14307;51.718;8.938;2024-03-06T03:19:55;6.30;99.90
26691;DHT22;14307;51.718;8.938;2024-03-06T03:22:22;6.30;99.90
26691;DHT22;14307;51.718;8.938;2024-03-06T03:24:49;6.30;99.90
26691;DHT22;14307;51.718;8.938;2024-03-06T03:27:16;6.20;99.90
26691;DHT22;14307;51.718;8.938;2024-03-06T03:29:43;6.10;99.90
26691;DHT22;14307;51.718;8.938;2024-03-06T03:32:10;6.10;99.90
26691;DHT22;14307;51.718;8.938;2024-03-06T03:34:38;6.00;99.90
26691;DHT22;14307;51.718;8.938;2024-03-06T03:37:06;6.00;99.90
26691;DHT22;14307;51.718;8.938;2024-03-06T03:39:33;6.00;99.90
26691;DHT22;14307;51.718;8.938;2024-03-06T03:42:00;6.10;99.90
26691;DHT22;14307;51.718;8.938;2024-03-06T03:44:28;6.20;99.90
26691;DHT22;14307;51.718;8.938;2024-03-06T03:46:55;6.20;99.90
26691;DHT22;14307;51.718;8.938;2024-03-06T03:49:22;6.30;99.90
26691;DHT22;14307;51.718;8.938;2024-03-06T03:51:49;6.20;99.90
26691;DHT22;14307;51.718;8.938;2024-03-06T03:54:16;6.00;99.90
26691;DHT22;14307;51.718;8.938;2024-03-06T03:56:43;6.00;99.90
26691;DHT22;14307;51.718;8.938;2024-03-06T03:59:10;5.80;99.90
26691;DHT22;14307;51.718;8.938;2024-03-06T04:01:38;5.80;99.90
26691;DHT22;14307;51.718;8.938;2024-03-06T04:04:05;5.80;99.90
26691;DHT22;14307;51.718;8.938;2024-03-06T04:06:34;5.80;99.90
26691;DHT22;14307;51.718;8.938;2024-03-06T04:09:01;5.90;99.90
26691;DHT22;14307;51.718;8.938;2024-03-06T04:11:29;5.90;99.90
26691;DHT22;14307;51.718;8.938;2024-03-06T04:13:56;5.90;99.90
26691;DHT22;14307;51.718;8.938;2024-03-06T04:16:23;5.90;99.90
26691;DHT22;14307;51.718;8.938;2024-03-06T04:18:50;6.10;99.90
26691;DHT22;14307;51.718;8.938;2024-03-06T04:21:18;6.10;99.90
26691;DHT22;14307;51.718;8.938;2024-03-06T04:23:45;6.10;99.90
26691;DHT22;14307;51.718;8.938;2024-03-06T04:26:12;6.10;99.90
26691;DHT22;14307;51.718;8.938;2024-03-06T04:28:40;6.00;99.90
26691;DHT22;14307;51.718;8.938;2024-03-06T04:31:08;5.90;99.90
26691;DHT22;14307;51.718;8.938;2024-03-06T04:33:34;5.80;99.90
26691;DHT22;14307;51.718;8.938;2024-03-06T04:36:03;5.90;99.90
26691;DHT22;14307;51.718;8.938;2024-03-06T04:38:31;5.80;99.90
26691;DHT22;14307;51.718;8.938;2024-03-06T04:40:58;5.80;99.90
26691;DHT22;14307;51.718;8.938;2024-03-06T04:43:26;5.90;99.90
26691;DHT22;14307;51.718;8.938;2024-03-06T04:45:53;5.90;99.90
26691;DHT22;14307;51.718;8.938;2024-03-06T04:48:20;5.90;99.90
26691;DHT22;14307;51.718;8.938;2024-03-06T04:50:47;5.90;99.90
26691;DHT22;14307;51.718;8.938;2024-03-06T04:53:15;5.90;99.90
26691;DHT22;14307;51.718;8.938;2024-03-06T04:55:42;5.90;99.90
26691;DHT22;14307;51.718;8.938;2024-03-06T04:58:09;5.90;99.90
26691;DHT22;14307;51.718;8.938;2024-03-06T05:00:36;6.00;99.90
26691;DHT22;14307;51.718;8.938;2024-03-06T05:03:03;5.90;99.90
26691;DHT22;14307;51.718;8.938;2024-03-06T05:05:48;6.00;99.90
26691;DHT22;14307;51.718;8.938;2024-03-06T05:08:33;5.90;99.90
26691;DHT22;14307;51.718;8.938;2024-03-06T05:11:17;5.90;99.90
26691;DHT22;14307;51.718;8.938;2024-03-06T05:14:02;6.00;99.90
26691;DHT22;14307;51.718;8.938;2024-03-06T05:16:47;6.10;99.90
26691;DHT22;14307;51.718;8.938;2024-03-06T05:19:31;6.20;99.90
26691;DHT22;14307;51.718;8.938;2024-03-06T05:22:16;6.10;99.90
26691;DHT22;14307;51.718;8.938;2024-03-06T05:25:01;6.10;99.90
26691;DHT22;14307;51.718;8.938;2024-03-06T05:27:45;6.00;99.90
26691;DHT22;14307;51.718;8.938;2024-03-06T05:30:30;5.80;99.90
26691;DHT22;14307;51.718;8.938;2024-03-06T05:33:14;5.90;99.90
26691;DHT22;14307;51.718;8.938;2024-03-06T05:35:59;5.80;99.90
26691;DHT22;14307;51.718;8.938;2024-03-06T05:38:47;5.90;99.90
26691;DHT22;14307;51.718;8.938;2024-03-06T05:41:33;5.90;99.90
26691;DHT22;14307;51.718;8.938;2024-03-06T05:44:17;5.90;99.90
26691;DHT22;14307;51.718;8.938;2024-03-06T05:47:02;5.90;99.90
26691;DHT22;14307;51.718;8.938;2024-03-06T05:49:47;5.90;99.90
26691;DHT22;14307;51.718;8.938;2024-03-06T05:52:32;5.90;99.90
26691;DHT22;14307;51.718;8.938;2024-03-06T05:55:16;5.90;99.90
26691;DHT22;14307;51.718;8.938;2024-03-06T05:58:01;5.90;99.90
26691;DHT22;14307;51.718;8.938;2024-03-06T06:00:38;5.80;99.90
26691;DHT22;14307;51.718;8.938;2024-03-06T06:03:07;5.80;99.90
26691;DHT22;14307;51.718;8.938;2024-03-06T06:05:35;5.80;99.90
26691;DHT22;14307;51.718;8.938;2024-03-06T06:08:04;5.80;99.90
26691;DHT22;14307;51.718;8.938;2024-03-06T06:10:32;5.80;99.90
26691;DHT22;14307;51.718;8.938;2024-03-06T06:13:00;5.70;99.90
26691;DHT22;14307;51.718;8.938;2024-03-06T06:15:27;5.60;99.90
26691;DHT22;14307;51.718;8.938;2024-03-06T06:17:54;5.70;99.90
26691;DHT22;14307;51.718;8.938;2024-03-06T06:20:21;5.70;99.90
26691;DHT22;14307;51.718;8.938;2024-03-06T06:22:48;5.70;99.90
26691;DHT22;14307;51.718;8.938;2024-03-06T06:25:15;5.70;99.90
26691;DHT22;14307;51.718;8.938;2024-03-06T06:27:43;5.60;99.90
26691;DHT22;14307;51.718;8.938;2024-03-06T06:30:10;5.60;99.90
26691;DHT22;14307;51.718;8.938;2024-03-06T06:32:40;5.70;99.90
26691;DHT22;14307;51.718;8.938;2024-03-06T06:35:09;5.70;99.90
26691;DHT22;14307;51.718;8.938;2024-03-06T06:37:37;5.70;99.90
26691;DHT22;14307;51.718;8.938;2024-03-06T06:40:07;5.70;99.90
26691;DHT22;14307;51.718;8.938;2024-03-06T06:42:35;5.70;99.90
26691;DHT22;14307;51.718;8.938;2024-03-06T06:45:05;5.70;99.90
26691;DHT22;14307;51.718;8.938;2024-03-06T06:47:34;5.80;99.90
26691;DHT22;14307;51.718;8.938;2024-03-06T06:50:02;5.80;99.90
26691;DHT22;14307;51.718;8.938;2024-03-06T06:52:33;5.90;99.90
26691;DHT22;14307;51.718;8.938;2024-03-06T06:55:01;5.80;99.90
26691;DHT22;14307;51.718;8.938;2024-03-06T06:57:30;5.90;99.90
26691;DHT22;14307;51.718;8.938;2024-03-06T06:59:57;5.70;99.90
26691;DHT22;14307;51.718;8.938;2024-03-06T07:02:24;5.70;99.90
26691;DHT22;14307;51.718;8.938;2024-03-06T07:04:52;5.70;99.90
26691;DHT22;14307;51.718;8.938;2024-03-06T07:07:19;5.70;99.90
26691;DHT22;14307;51.718;8.938;2024-03-06T07:09:47;5.80;99.90
26691;DHT22;14307;51.718;8.938;2024-03-06T07:12:14;5.60;99.90
26691;DHT22;14307;51.718;8.938;2024-03-06T07:14:41;5.70;99.90
26691;DHT22;14307;51.718;8.938;2024-03-06T07:17:08;5.70;99.90
26691;DHT22;14307;51.718;8.938;2024-03-06T07:19:36;5.70;99.90
26691;DHT22;14307;51.718;8.938;2024-03-06T07:22:03;5.80;99.90
26691;DHT22;14307;51.718;8.938;2024-03-06T07:24:30;5.80;99.90
26691;DHT22;14307;51.718;8.938;2024-03-06T07:26:57;5.90;99.90
26691;DHT22;14307;51.718;8.938;2024-03-06T07:29:24;5.90;99.90
26691;DHT22;14307;51.718;8.938;2024-03-06T07:31:52;5.90;99.90
26691;DHT22;14307;51.718;8.938;2024-03-06T07:34:20;5.90;99.90
26691;DHT22;14307;51.718;8.938;2024-03-06T07:36:50;5.90;99.90
26691;DHT22;14307;51.718;8.938;2024-03-06T07:39:19;5.90;99.90
26691;DHT22;14307;51.718;8.938;2024-03-06T07:41:46;6.00;99.90
26691;DHT22;14307;51.718;8.938;2024-03-06T07:44:13;6.00;99.90
26691;DHT22;14307;51.718;8.938;2024-03-06T07:46:41;6.10;99.90
26691;DHT22;14307;51.718;8.938;2024-03-06T07:49:08;6.00;99.90
26691;DHT22;14307;51.718;8.938;2024-03-06T07:51:35;6.20;99.90
26691;DHT22;14307;51.718;8.938;2024-03-06T07:54:03;6.10;99.90
26691;DHT22;14307;51.718;8.938;2024-03-06T07:56:30;6.10;99.90
26691;DHT22;14307;51.718;8.938;2024-03-06T07:58:57;6.20;99.90
26691;DHT22;14307;51.718;8.938;2024-03-06T08:01:25;6.10;99.90
26691;DHT22;14307;51.718;8.938;2024-03-06T08:03:53;6.10;99.90
26691;DHT22;14307;51.718;8.938;2024-03-06T08:06:20;6.10;99.90
26691;DHT22;14307;51.718;8.938;2024-03-06T08:08:47;6.20;99.90
26691;DHT22;14307;51.718;8.938;2024-03-06T08:11:15;6.20;99.90
26691;DHT22;14307;51.718;8.938;2024-03-06T08:13:43;6.30;99.90
26691;DHT22;14307;51.718;8.938;2024-03-06T08:16:11;6.30;99.90
26691;DHT22;14307;51.718;8.938;2024-03-06T08:18:38;6.40;99.90
26691;DHT22;14307;51.718;8.938;2024-03-06T08:21:06;6.40;99.90
26691;DHT22;14307;51.718;8.938;2024-03-06T08:23:33;6.40;99.90
26691;DHT22;14307;51.718;8.938;2024-03-06T08:26:03;6.40;99.90
26691;DHT22;14307;51.718;8.938;2024-03-06T08:28:30;6.30;99.90
26691;DHT22;14307;51.718;8.938;2024-03-06T08:30:58;6.40;99.90
26691;DHT22;14307;51.718;8.938;2024-03-06T08:33:25;6.40;99.90
26691;DHT22;14307;51.718;8.938;2024-03-06T08:35:53;6.40;99.90
26691;DHT22;14307;51.718;8.938;2024-03-06T08:38:20;6.40;99.90
26691;DHT22;14307;51.718;8.938;2024-03-06T08:40:47;6.40;99.90
26691;DHT22;14307;51.718;8.938;2024-03-06T08:43:15;6.50;99.90
26691;DHT22;14307;51.718;8.938;2024-03-06T08:45:43;6.50;99.90
26691;DHT22;14307;51.718;8.938;2024-03-06T08:48:10;6.50;99.90
26691;DHT22;14307;51.718;8.938;2024-03-06T08:50:38;6.50;99.90
26691;DHT22;14307;51.718;8.938;2024-03-06T08:53:06;6.50;99.90
26691;DHT22;14307;51.718;8.938;2024-03-06T08:55:34;6.50;99.90
26691;DHT22;14307;51.718;8.938;2024-03-06T08:58:01;6.50;99.90
26691;DHT22;14307;51.718;8.938;2024-03-06T09:00:28;6.50;99.90
26691;DHT22;14307;51.718;8.938;2024-03-06T09:02:55;6.50;99.90
26691;DHT22;14307;51.718;8.938;2024-03-06T09:05:23;6.50;99.90
26691;DHT22;14307;51.718;8.938;2024-03-06T09:07:50;6.60;99.90
26691;DHT22;14307;51.718;8.938;2024-03-06T09:10:17;6.60;99.90
26691;DHT22;14307;51.718;8.938;2024-03-06T09:12:46;6.60;99.90
26691;DHT22;14307;51.718;8.938;2024-03-06T09:15:14;6.70;99.90
26691;DHT22;14307;51.718;8.938;2024-03-06T09:17:42;6.70;99.90
26691;DHT22;14307;51.718;8.938;2024-03-06T09:20:10;6.70;99.90
26691;DHT22;14307;51.718;8.938;2024-03-06T09:22:39;6.70;99.90
26691;DHT22;14307;51.718;8.938;2024-03-06T09:25:07;6.90;99.90
26691;DHT22;14307;51.718;8.938;2024-03-06T09:27:35;6.90;99.90
26691;DHT22;14307;51.718;8.938;2024-03-06T09:30:02;7.10;99.90
26691;DHT22;14307;51.718;8.938;2024-03-06T09:32:30;7.20;99.90
26691;DHT22;14307;51.718;8.938;2024-03-06T09:34:58;7.00;99.90
26691;DHT22;14307;51.718;8.938;2024-03-06T09:37:26;7.00;99.90
26691;DHT22;14307;51.718;8.938;2024-03-06T09:39:55;7.20;99.90
26691;DHT22;14307;51.718;8.938;2024-03-06T09:42:23;7.30;99.90
26691;DHT22;14307;51.718;8.938;2024-03-06T09:44:50;7.50;99.90
26691;DHT22;14307;51.718;8.938;2024-03-06T09:47:21;7.50;99.90
26691;DHT22;14307;51.718;8.938;2024-03-06T09:49:53;7.40;99.90
26691;DHT22;14307;51.718;8.938;2024-03-06T09:52:24;7.50;99.90
26691;DHT22;14307;51.718;8.938;2024-03-06T09:54:54;7.50;99.90
26691;DHT22;14307;51.718;8.938;2024-03-06T09:57:21;7.70;99.90
26691;DHT22;14307;51.718;8.938;2024-03-06T09:59:48;7.80;99.90
26691;DHT22;14307;51.718;8.938;2024-03-06T10:02:34;8.00;99.90
26691;DHT22;14307;51.718;8.938;2024-03-06T10:05:05;8.30;99.90
26691;DHT22;14307;51.718;8.938;2024-03-06T10:07:33;8.30;99.90
26691;DHT22;14307;51.718;8.938;2024-03-06T10:10:00;8.50;99.90
26691;DHT22;14307;51.718;8.938;2024-03-06T10:12:28;8.60;99.90
26691;DHT22;14307;51.718;8.938;2024-03-06T10:14:56;8.70;99.90
26691;DHT22;14307;51.718;8.938;2024-03-06T10:17:24;8.70;99.90
26691;DHT22;14307;51.718;8.938;2024-03-06T10:19:56;8.80;99.90
26691;DHT22;14307;51.718;8.938;2024-03-06T10:22:25;8.90;99.90
26691;DHT22;14307;51.718;8.938;2024-03-06T10:24:55;8.90;99.90
26691;DHT22;14307;51.718;8.938;2024-03-06T10:27:23;8.60;99.90
26691;DHT22;14307;51.718;8.938;2024-03-06T10:30:04;8.60;99.90
26691;DHT22;14307;51.718;8.938;2024-03-06T10:32:33;8.80;99.90
26691;DHT22;14307;51.718;8.938;2024-03-06T10:35:00;8.90;99.90
26691;DHT22;14307;51.718;8.938;2024-03-06T10:37:29;8.70;99.90
26691;DHT22;14307;51.718;8.938;2024-03-06T10:39:58;8.70;99.90
26691;DHT22;14307;51.718;8.938;2024-03-06T10:42:28;8.80;99.90
26691;DHT22;14307;51.718;8.938;2024-03-06T10:44:59;8.90;99.90
26691;DHT22;14307;51.718;8.938;2024-03-06T10:47:28;8.60;99.90
26691;DHT22;14307;51.718;8.938;2024-03-06T10:50:02;8.40;99.90
26691;DHT22;14307;51.718;8.938;2024-03-06T10:52:33;8.10;99.90
26691;DHT22;14307;51.718;8.938;2024-03-06T10:55:02;7.90;99.90
26691;DHT22;14307;51.718;8.938;2024-03-06T10:57:30;7.80;99.90
26691;DHT22;14307;51.718;8.938;2024-03-06T10:59:58;7.60;99.90
26691;DHT22;14307;51.718;8.938;2024-03-06T11:02:32;7.70;99.90
26691;DHT22;14307;51.718;8.938;2024-03-06T11:05:00;7.90;99.90
26691;DHT22;14307;51.718;8.938;2024-03-06T11:07:29;8.00;99.90
26691;DHT22;14307;51.718;8.938;2024-03-06T11:09:58;7.80;99.90
26691;DHT22;14307;51.718;8.938;2024-03-06T11:12:34;7.80;99.90
26691;DHT22;14307;51.718;8.938;2024-03-06T11:15:15;7.80;99.90
26691;DHT22;14307;51.718;8.938;2024-03-06T11:17:44;7.90;99.90
26691;DHT22;14307;51.718;8.938;2024-03-06T11:20:17;8.00;99.90
26691;DHT22;14307;51.718;8.938;2024-03-06T11:28:28;8.40;99.90
26691;DHT22;14307;51.718;8.938;2024-03-06T11:31:05;8.20;99.90
26691;DHT22;14307;51.718;8.938;2024-03-06T11:33:46;8.30;99.90
26691;DHT22;14307;51.718;8.938;2024-03-06T11:36:25;8.10;99.90
26691;DHT22;14307;51.718;8.938;2024-03-06T11:38:59;8.00;99.90
26691;DHT22;14307;51.718;8.938;2024-03-06T11:41:30;8.20;99.90
26691;DHT22;14307;51.718;8.938;2024-03-06T11:44:00;8.30;99.90
26691;DHT22;14307;51.718;8.938;2024-03-06T11:47:00;8.20;99.90
26691;DHT22;14307;51.718;8.938;2024-03-06T11:49:29;8.20;99.90
26691;DHT22;14307;51.718;8.938;2024-03-06T11:52:04;8.20;99.90
26691;DHT22;14307;51.718;8.938;2024-03-06T11:54:41;8.30;99.90
26691;DHT22;14307;51.718;8.938;2024-03-06T11:57:08;8.40;99.90
26691;DHT22;14307;51.718;8.938;2024-03-06T11:59:37;8.40;99.90
26691;DHT22;14307;51.718;8.938;2024-03-06T12:02:07;8.50;99.90
26691;DHT22;14307;51.718;8.938;2024-03-06T12:04:35;8.30;99.90
26691;DHT22;14307;51.718;8.938;2024-03-06T12:07:06;8.50;99.90
26691;DHT22;14307;51.718;8.938;2024-03-06T12:09:35;8.50;99.90
26691;DHT22;14307;51.718;8.938;2024-03-06T12:12:08;8.40;99.90
26691;DHT22;14307;51.718;8.938;2024-03-06T12:14:36;8.30;99.90
26691;DHT22;14307;51.718;8.938;2024-03-06T12:17:10;8.60;99.90
26691;DHT22;14307;51.718;8.938;2024-03-06T12:19:38;8.70;99.90
26691;DHT22;14307;51.718;8.938;2024-03-06T12:22:05;8.50;99.90
26691;DHT22;14307;51.718;8.938;2024-03-06T12:24:34;8.10;99.90
26691;DHT22;14307;51.718;8.938;2024-03-06T12:27:04;8.20;99.90
26691;DHT22;14307;51.718;8.938;2024-03-06T12:29:32;8.30;99.90
26691;DHT22;14307;51.718;8.938;2024-03-06T12:32:00;8.50;99.90
26691;DHT22;14307;51.718;8.938;2024-03-06T12:34:28;8.60;99.90
26691;DHT22;14307;51.718;8.938;2024-03-06T12:37:11;8.70;99.90
26691;DHT22;14307;51.718;8.938;2024-03-06T12:39:38;8.70;99.90
26691;DHT22;14307;51.718;8.938;2024-03-06T12:42:09;8.70;99.90
26691;DHT22;14307;51.718;8.938;2024-03-06T12:44:38;8.60;99.90
26691;DHT22;14307;51.718;8.938;2024-03-06T12:47:07;8.40;99.90
26691;DHT22;14307;51.718;8.938;2024-03-06T12:49:34;8.40;99.90
26691;DHT22;14307;51.718;8.938;2024-03-06T12:52:01;8.50;99.90
26691;DHT22;14307;51.718;8.938;2024-03-06T12:54:31;8.50;99.90
26691;DHT22;14307;51.718;8.938;2024-03-06T12:56:58;8.60;99.90
26691;DHT22;14307;51.718;8.938;2024-03-06T12:59:27;8.50;99.90
26691;DHT22;14307;51.718;8.938;2024-03-06T13:01:53;8.40;99.90
26691;DHT22;14307;51.718;8.938;2024-03-06T13:04:21;8.40;99.90
26691;DHT22;14307;51.718;8.938;2024-03-06T13:06:49;8.40;99.90
26691;DHT22;14307;51.718;8.938;2024-03-06T13:09:16;8.20;99.90
26691;DHT22;14307;51.718;8.938;2024-03-06T13:11:43;8.30;99.90
26691;DHT22;14307;51.718;8.938;2024-03-06T13:14:10;8.30;99.90
26691;DHT22;14307;51.718;8.938;2024-03-06T13:16:39;8.30;99.90
26691;DHT22;14307;51.718;8.938;2024-03-06T13:19:07;8.40;99.90
26691;DHT22;14307;51.718;8.938;2024-03-06T13:21:34;8.40;99.90
26691;DHT22;14307;51.718;8.938;2024-03-06T13:24:02;8.40;99.90
26691;DHT22;14307;51.718;8.938;2024-03-06T13:26:29;8.40;99.90
26691;DHT22;14307;51.718;8.938;2024-03-06T13:28:57;8.40;99.90
26691;DHT22;14307;51.718;8.938;2024-03-06T13:31:24;8.50;99.90
26691;DHT22;14307;51.718;8.938;2024-03-06T13:33:51;8.60;99.90
26691;DHT22;14307;51.718;8.938;2024-03-06T13:36:19;8.60;99.90
26691;DHT22;14307;51.718;8.938;2024-03-06T13:38:48;8.50;99.90
26691;DHT22;14307;51.718;8.938;2024-03-06T13:41:15;8.50;99.90
26691;DHT22;14307;51.718;8.938;2024-03-06T13:43:43;8.40;99.90
26691;DHT22;14307;51.718;8.938;2024-03-06T13:46:10;8.30;99.90
26691;DHT22;14307;51.718;8.938;2024-03-06T13:48:38;8.30;99.90
26691;DHT22;14307;51.718;8.938;2024-03-06T13:51:05;8.40;99.90
26691;DHT22;14307;51.718;8.938;2024-03-06T13:53:32;8.30;99.90
26691;DHT22;14307;51.718;8.938;2024-03-06T13:55:59;8.30;99.90
26691;DHT22;14307;51.718;8.938;2024-03-06T13:58:26;8.30;99.90
26691;DHT22;14307;51.718;8.938;2024-03-06T14:00:55;8.40;99.90
26691;DHT22;14307;51.718;8.938;2024-03-06T14:03:22;8.50;99.90
26691;DHT22;14307;51.718;8.938;2024-03-06T14:05:49;8.50;99.90
26691;DHT22;14307;51.718;8.938;2024-03-06T14:08:16;8.70;99.90
26691;DHT22;14307;51.718;8.938;2024-03-06T14:10:44;8.80;99.90
26691;DHT22;14307;51.718;8.938;2024-03-06T14:13:12;8.80;99.90
26691;DHT22;14307;51.718;8.938;2024-03-06T14:15:39;8.50;99.90
26691;DHT22;14307;51.718;8.938;2024-03-06T14:18:07;8.50;99.90
26691;DHT22;14307;51.718;8.938;2024-03-06T14:20:34;8.50;99.90
26691;DHT22;14307;51.718;8.938;2024-03-06T14:23:01;8.60;99.90
26691;DHT22;14307;51.718;8.938;2024-03-06T14:25:29;8.80;99.90
26691;DHT22;14307;51.718;8.938;2024-03-06T14:27:56;8.90;99.90
26691;DHT22;14307;51.718;8.938;2024-03-06T14:30:23;9.00;99.90
26691;DHT22;14307;51.718;8.938;2024-03-06T14:32:50;8.90;99.90
26691;DHT22;14307;51.718;8.938;2024-03-06T14:35:17;8.70;99.90
26691;DHT22;14307;51.718;8.938;2024-03-06T14:37:45;8.50;99.90
26691;DHT22;14307;51.718;8.938;2024-03-06T14:40:12;8.70;99.90
26691;DHT22;14307;51.718;8.938;2024-03-06T14:42:39;8.80;99.90
26691;DHT22;14307;51.718;8.938;2024-03-06T14:45:07;8.70;99.90
26691;DHT22;14307;51.718;8.938;2024-03-06T14:47:35;8.70;99.90
26691;DHT22;14307;51.718;8.938;2024-03-06T14:50:03;8.70;99.90
26691;DHT22;14307;51.718;8.938;2024-03-06T14:52:30;8.80;99.90
26691;DHT22;14307;51.718;8.938;2024-03-06T14:54:57;8.80;99.90
26691;DHT22;14307;51.718;8.938;2024-03-06T14:57:24;8.70;99.90
26691;DHT22;14307;51.718;8.938;2024-03-06T14:59:51;8.70;99.90
26691;DHT22;14307;51.718;8.938;2024-03-06T15:02:21;8.90;99.90
26691;DHT22;14307;51.718;8.938;2024-03-06T15:04:48;9.00;99.90
26691;DHT22;14307;51.718;8.938;2024-03-06T15:07:15;8.70;99.90
26691;DHT22;14307;51.718;8.938;2024-03-06T15:09:42;8.80;99.90
26691;DHT22;14307;51.718;8.938;2024-03-06T15:12:09;8.80;99.90
26691;DHT22;14307;51.718;8.938;2024-03-06T15:14:36;8.80;99.90
26691;DHT22;14307;51.718;8.938;2024-03-06T15:17:12;8.60;99.90
26691;DHT22;14307;51.718;8.938;2024-03-06T15:19:39;8.70;99.90
26691;DHT22;14307;51.718;8.938;2024-03-06T15:22:07;8.60;99.90
26691;DHT22;14307;51.718;8.938;2024-03-06T15:24:34;8.60;99.90
26691;DHT22;14307;51.718;8.938;2024-03-06T15:27:01;8.40;99.90
26691;DHT22;14307;51.718;8.938;2024-03-06T15:29:29;8.40;99.90
26691;DHT22;14307;51.718;8.938;2024-03-06T15:31:56;8.60;99.90
26691;DHT22;14307;51.718;8.938;2024-03-06T15:34:23;8.80;99.90
26691;DHT22;14307;51.718;8.938;2024-03-06T15:36:51;8.80;99.90
26691;DHT22;14307;51.718;8.938;2024-03-06T15:39:23;8.90;99.90
26691;DHT22;14307;51.718;8.938;2024-03-06T15:41:50;8.90;99.90
26691;DHT22;14307;51.718;8.938;2024-03-06T15:44:17;8.80;99.90
26691;DHT22;14307;51.718;8.938;2024-03-06T15:46:44;9.00;99.90
26691;DHT22;14307;51.718;8.938;2024-03-06T15:49:25;9.10;99.90
26691;DHT22;14307;51.718;8.938;2024-03-06T15:51:52;9.20;99.90
26691;DHT22;14307;51.718;8.938;2024-03-06T15:54:22;9.20;99.90
26691;DHT22;14307;51.718;8.938;2024-03-06T15:56:49;9.30;99.90
26691;DHT22;14307;51.718;8.938;2024-03-06T15:59:17;9.00;99.90
26691;DHT22;14307;51.718;8.938;2024-03-06T16:01:44;8.90;99.90